createdAt,value
2023-01-19T00:00:50.101Z,2.38
2023-01-19T00:03:17.884Z,2.36
2023-01-19T00:05:46.684Z,2.33
2023-01-19T00:08:14.920Z,2.29
2023-01-19T00:10:46.399Z,2.31
2023-01-19T00:13:15.136Z,2.32
2023-01-19T00:15:44.027Z,2.30
2023-01-19T00:18:11.723Z,2.30
2023-01-19T00:20:40.594Z,2.28
2023-01-19T00:23:08.851Z,2.26
2023-01-19T00:25:44.373Z,2.26
2023-01-19T00:28:15.369Z,2.25
2023-01-19T00:30:44.377Z,2.20
2023-01-19T00:33:15.943Z,2.20
2023-01-19T00:35:44.020Z,2.22
2023-01-19T00:38:12.714Z,2.18
2023-01-19T00:40:40.541Z,2.19
2023-01-19T00:43:08.272Z,2.17
2023-01-19T00:45:36.176Z,2.19
2023-01-19T00:48:04.430Z,2.19
2023-01-19T00:50:33.854Z,2.19
2023-01-19T00:53:02.356Z,2.18
2023-01-19T00:55:33.394Z,2.17
2023-01-19T00:58:02.809Z,2.17
2023-01-19T01:00:30.963Z,2.13
2023-01-19T01:02:59.217Z,2.12
2023-01-19T01:05:27.245Z,2.11
2023-01-19T01:07:55.336Z,2.13
2023-01-19T01:10:27.977Z,2.14
2023-01-19T01:13:21.015Z,2.14
2023-01-19T01:15:43.938Z,2.14
2023-01-19T01:18:11.783Z,2.16
2023-01-19T01:20:39.887Z,2.17
2023-01-19T01:23:07.942Z,2.16
2023-01-19T01:25:37.837Z,2.14
2023-01-19T01:28:08.670Z,2.11
2023-01-19T01:30:40.025Z,2.09
2023-01-19T01:33:08.430Z,2.12
2023-01-19T01:35:36.544Z,2.11
2023-01-19T01:38:04.359Z,2.09
2023-01-19T01:40:32.319Z,2.07
2023-01-19T01:43:00.247Z,2.04
2023-01-19T01:45:35.749Z,2.05
2023-01-19T01:48:27.061Z,1.92
2023-01-19T01:51:19.249Z,1.94
2023-01-19T01:53:59.815Z,1.95
2023-01-19T01:56:52.440Z,1.94
2023-01-19T01:59:26.845Z,2.00
2023-01-19T02:02:27.978Z,1.99
2023-01-19T02:05:10.866Z,1.97
2023-01-19T02:08:09.185Z,2.02
2023-01-19T02:10:55.506Z,2.01
2023-01-19T02:13:24.316Z,1.97
2023-01-19T02:15:57.918Z,1.94
2023-01-19T02:18:30.342Z,1.93
2023-01-19T02:21:24.557Z,1.90
2023-01-19T02:23:58.064Z,1.91
2023-01-19T02:26:35.003Z,1.90
2023-01-19T02:29:07.651Z,1.90
2023-01-19T02:31:39.020Z,1.89
2023-01-19T02:34:11.129Z,1.87
2023-01-19T02:36:51.939Z,1.80
2023-01-19T02:39:31.192Z,1.84
2023-01-19T02:42:10.913Z,1.84
2023-01-19T02:44:40.667Z,1.82
2023-01-19T02:47:08.501Z,1.83
2023-01-19T02:49:36.586Z,1.82
2023-01-19T02:52:04.913Z,1.85
2023-01-19T02:55:00.355Z,1.79
2023-01-19T02:58:02.154Z,1.79
2023-01-19T03:01:15.357Z,1.79
2023-01-19T03:03:56.035Z,1.86
2023-01-19T03:06:43.921Z,1.79
2023-01-19T03:09:26.768Z,1.86
2023-01-19T03:12:26.656Z,1.84
2023-01-19T03:15:03.623Z,1.84
2023-01-19T03:17:34.699Z,1.85
2023-01-19T03:20:04.835Z,1.89
2023-01-19T03:22:34.104Z,1.89
2023-01-19T03:25:03.262Z,1.94
2023-01-19T03:27:40.961Z,1.96
2023-01-19T03:30:18.673Z,1.94
2023-01-19T03:33:01.914Z,1.92
2023-01-19T03:35:35.081Z,1.94
2023-01-19T03:38:09.752Z,1.94
2023-01-19T03:40:38.559Z,1.94
2023-01-19T03:43:08.072Z,1.93
2023-01-19T03:45:39.160Z,1.93
2023-01-19T03:48:07.603Z,1.91
2023-01-19T03:50:35.568Z,1.89
2023-01-19T03:53:13.609Z,1.86
2023-01-19T03:55:45.656Z,1.85
2023-01-19T03:58:13.736Z,1.84
2023-01-19T04:00:41.930Z,1.80
2023-01-19T04:03:16.150Z,1.81
2023-01-19T04:05:44.711Z,1.81
2023-01-19T04:08:13.018Z,1.82
2023-01-19T04:10:40.742Z,1.83
2023-01-19T04:13:08.830Z,1.85
2023-01-19T04:15:36.732Z,1.83
2023-01-19T04:18:05.236Z,1.77
2023-01-19T04:20:33.793Z,1.79
2023-01-19T04:23:02.121Z,1.81
2023-01-19T04:25:30.213Z,1.78
2023-01-19T04:28:01.756Z,1.82
2023-01-19T04:30:29.641Z,1.85
2023-01-19T04:33:00.132Z,1.84
2023-01-19T04:35:28.640Z,1.83
2023-01-19T04:37:56.638Z,1.89
2023-01-19T04:40:24.584Z,1.94
2023-01-19T04:42:52.295Z,1.89
2023-01-19T04:45:20.253Z,1.91
2023-01-19T04:47:48.096Z,1.93
2023-01-19T04:50:16.175Z,1.97
2023-01-19T04:52:44.021Z,1.99
2023-01-19T04:55:11.982Z,1.97
2023-01-19T04:57:39.949Z,1.94
2023-01-19T05:00:09.128Z,1.96
2023-01-19T05:02:37.150Z,1.97
2023-01-19T05:05:05.635Z,1.94
2023-01-19T05:07:33.475Z,1.97
2023-01-19T05:10:01.675Z,2.00
2023-01-19T05:12:29.402Z,2.04
2023-01-19T05:14:57.244Z,2.06
2023-01-19T05:17:25.324Z,2.09
2023-01-19T05:19:53.168Z,2.13
2023-01-19T05:22:21.011Z,2.14
2023-01-19T05:24:48.970Z,2.12
2023-01-19T05:27:16.697Z,2.07
2023-01-19T05:29:44.535Z,2.09
2023-01-19T05:32:13.699Z,2.07
2023-01-19T05:34:41.543Z,2.06
2023-01-19T05:37:09.389Z,2.08
2023-01-19T05:39:37.349Z,2.04
2023-01-19T05:42:05.548Z,2.03
2023-01-19T05:44:33.387Z,2.04
2023-01-19T05:47:01.159Z,2.02
2023-01-19T05:49:28.959Z,2.00
2023-01-19T05:51:56.794Z,1.97
2023-01-19T05:54:24.876Z,1.95
2023-01-19T05:56:52.723Z,1.93
2023-01-19T05:59:24.131Z,1.90
2023-01-19T06:01:53.025Z,1.92
2023-01-19T06:04:21.548Z,1.90
2023-01-19T06:06:50.471Z,1.86
2023-01-19T06:09:18.547Z,1.90
2023-01-19T06:11:46.856Z,1.87
2023-01-19T06:14:14.938Z,1.95
2023-01-19T06:16:42.762Z,2.04
2023-01-19T06:19:10.506Z,2.06
2023-01-19T06:21:38.464Z,2.13
2023-01-19T06:24:06.793Z,2.22
2023-01-19T06:26:34.633Z,2.26
2023-01-19T06:29:02.472Z,2.29
2023-01-19T06:31:30.835Z,2.31
2023-01-19T06:33:58.767Z,2.40
2023-01-19T06:36:26.485Z,2.39
2023-01-19T06:38:54.321Z,2.38
2023-01-19T06:41:22.165Z,2.35
2023-01-19T06:43:49.893Z,2.36
2023-01-19T06:46:17.784Z,2.34
2023-01-19T06:48:45.567Z,2.36
2023-01-19T06:51:13.410Z,2.31
2023-01-19T06:53:41.254Z,2.31
2023-01-19T06:56:09.719Z,2.28
2023-01-19T06:58:38.262Z,2.26
2023-01-19T07:01:07.416Z,2.24
2023-01-19T07:03:36.714Z,2.20
2023-01-19T07:06:08.504Z,2.20
2023-01-19T07:08:37.788Z,2.19
2023-01-19T07:11:26.520Z,2.19
2023-01-19T07:13:56.630Z,2.18
2023-01-19T07:16:24.549Z,2.16
2023-01-19T07:18:52.449Z,2.16
2023-01-19T07:21:20.294Z,2.13
2023-01-19T07:23:52.851Z,2.13
2023-01-19T07:26:22.094Z,2.15
2023-01-19T07:28:49.933Z,2.13
2023-01-19T07:31:19.145Z,2.13
2023-01-19T07:33:47.180Z,2.14
2023-01-19T07:36:15.372Z,2.11
2023-01-19T07:38:43.105Z,2.09
2023-01-19T07:41:11.663Z,2.12
2023-01-19T07:43:39.504Z,2.13
2023-01-19T07:46:08.376Z,2.12
2023-01-19T07:48:36.274Z,2.13
2023-01-19T07:51:10.449Z,2.15
2023-01-19T07:53:41.693Z,2.14
2023-01-19T07:56:10.280Z,2.20
2023-01-19T07:58:39.073Z,2.21
2023-01-19T08:01:09.677Z,2.23
2023-01-19T08:03:37.965Z,2.21
2023-01-19T08:06:07.245Z,2.23
2023-01-19T08:08:34.994Z,2.27
2023-01-19T08:11:03.096Z,2.28
2023-01-19T08:13:30.769Z,2.31
2023-01-19T08:15:58.680Z,2.31
2023-01-19T08:18:26.474Z,2.33
2023-01-19T08:20:54.415Z,2.38
2023-01-19T08:23:22.146Z,2.39
2023-01-19T08:25:49.979Z,2.47
2023-01-19T08:28:18.908Z,2.53
2023-01-19T08:30:53.976Z,2.61
2023-01-19T08:33:23.718Z,2.65
2023-01-19T08:35:54.069Z,2.69
2023-01-19T08:38:22.815Z,2.69
2023-01-19T08:40:50.836Z,2.74
2023-01-19T08:43:18.796Z,2.83
2023-01-19T08:45:51.932Z,2.91
2023-01-19T08:48:22.414Z,2.97
2023-01-19T08:50:52.169Z,3.02
2023-01-19T08:53:21.135Z,3.07
2023-01-19T08:55:50.025Z,3.10
2023-01-19T08:58:20.498Z,3.21
2023-01-19T09:00:48.962Z,3.31
2023-01-19T09:03:16.946Z,3.42
2023-01-19T09:05:44.858Z,3.47
2023-01-19T09:08:14.740Z,3.53
2023-01-19T09:10:51.470Z,3.56
2023-01-19T09:13:20.627Z,3.64
2023-01-19T09:15:48.630Z,3.65
2023-01-19T09:18:19.431Z,3.70
2023-01-19T09:20:49.551Z,3.75
2023-01-19T09:23:20.646Z,3.82
2023-01-19T09:25:49.210Z,3.87
2023-01-19T09:28:17.937Z,4.00
2023-01-19T09:30:45.883Z,4.04
2023-01-19T09:33:17.284Z,4.10
2023-01-19T09:35:47.299Z,4.12
2023-01-19T09:38:20.057Z,4.13
2023-01-19T09:40:55.218Z,4.17
2023-01-19T09:44:09.388Z,4.17
2023-01-19T09:46:42.111Z,4.22
2023-01-19T09:49:26.672Z,4.26
2023-01-19T09:51:54.381Z,4.31
2023-01-19T09:54:57.533Z,4.25
2023-01-19T09:57:27.424Z,4.33
2023-01-19T09:59:59.502Z,4.38
2023-01-19T10:03:04.396Z,4.35
2023-01-19T10:05:44.808Z,4.39
2023-01-19T10:08:55.476Z,4.35
2023-01-19T10:11:52.737Z,4.38
2023-01-19T10:14:43.022Z,4.38
2023-01-19T10:17:26.336Z,4.36
2023-01-19T10:19:57.530Z,4.31
2023-01-19T10:22:28.521Z,4.27
2023-01-19T10:25:01.876Z,4.24
2023-01-19T10:27:34.258Z,4.26
2023-01-19T10:30:02.460Z,4.26
2023-01-19T10:32:35.923Z,4.31
2023-01-19T10:35:21.939Z,4.32
2023-01-19T10:37:56.289Z,4.39
2023-01-19T10:40:52.770Z,4.48
2023-01-19T10:43:37.879Z,4.62
2023-01-19T10:46:08.295Z,4.81
2023-01-19T10:48:42.027Z,4.93
2023-01-19T10:51:11.235Z,4.98
2023-01-19T10:53:38.997Z,5.02
2023-01-19T10:56:26.249Z,5.08
2023-01-19T10:58:54.525Z,5.18
2023-01-19T11:01:28.408Z,5.17
2023-01-19T11:04:03.576Z,5.11
2023-01-19T11:06:34.309Z,5.23
2023-01-19T11:09:20.277Z,5.18
2023-01-19T11:11:51.720Z,5.23
2023-01-19T11:14:24.832Z,5.24
2023-01-19T11:16:56.876Z,5.34
2023-01-19T11:19:31.795Z,5.41
2023-01-19T11:22:33.713Z,5.41
2023-01-19T11:25:04.315Z,5.51
2023-01-19T11:27:36.597Z,5.51
2023-01-19T11:30:24.004Z,5.52
2023-01-19T11:32:52.584Z,5.57
2023-01-19T11:35:40.684Z,5.54
2023-01-19T11:38:27.132Z,5.55
2023-01-19T11:40:58.571Z,5.59
2023-01-19T11:43:43.568Z,5.59
2023-01-19T11:46:16.737Z,5.52
2023-01-19T11:49:03.494Z,5.21
2023-01-19T11:51:39.738Z,5.21
2023-01-19T11:54:23.868Z,5.04
2023-01-19T11:56:54.502Z,4.95
2023-01-19T11:59:25.008Z,4.89
2023-01-19T12:01:57.961Z,4.72
2023-01-19T12:04:33.405Z,4.65
2023-01-19T12:07:07.612Z,4.40
2023-01-19T12:09:43.843Z,4.56
2023-01-19T12:12:33.292Z,4.45
2023-01-19T12:15:11.207Z,4.48
2023-01-19T12:17:52.155Z,4.43
2023-01-19T12:20:44.565Z,4.57
2023-01-19T12:23:48.174Z,4.47
2023-01-19T12:26:55.736Z,4.27
2023-01-19T12:29:29.220Z,4.42
2023-01-19T12:32:16.669Z,4.42
2023-01-19T12:34:49.867Z,4.37
2023-01-19T12:37:43.287Z,4.31
2023-01-19T12:40:22.173Z,4.34
2023-01-19T12:43:04.154Z,4.48
2023-01-19T12:45:38.004Z,4.40
2023-01-19T12:48:11.589Z,4.43
2023-01-19T12:50:40.031Z,4.59
2023-01-19T12:53:20.535Z,4.50
2023-01-19T12:56:00.442Z,4.59
2023-01-19T12:58:28.661Z,4.68
2023-01-19T13:01:21.433Z,4.75
2023-01-19T13:04:30.448Z,4.86
2023-01-19T13:07:10.545Z,4.89
2023-01-19T13:09:39.335Z,4.91
2023-01-19T13:12:25.300Z,4.98
2023-01-19T13:15:34.732Z,5.05
2023-01-19T13:18:03.342Z,5.20
2023-01-19T13:20:57.105Z,5.24
2023-01-19T13:23:52.676Z,5.33
2023-01-19T13:26:30.957Z,4.98
2023-01-19T13:29:35.884Z,4.88
2023-01-19T13:32:21.477Z,4.99
2023-01-19T13:34:58.635Z,4.81
2023-01-19T13:37:38.889Z,4.90
2023-01-19T13:40:15.008Z,4.86
2023-01-19T13:42:44.061Z,5.00
2023-01-19T13:45:39.987Z,4.99
2023-01-19T13:48:14.652Z,4.96
2023-01-19T13:50:44.543Z,4.70
2023-01-19T13:53:20.620Z,4.44
2023-01-19T13:55:48.538Z,4.60
2023-01-19T13:58:24.385Z,4.57
2023-01-19T14:00:52.825Z,4.62
2023-01-19T14:03:23.955Z,4.70
2023-01-19T14:05:54.458Z,4.51
2023-01-19T14:08:23.097Z,4.56
2023-01-19T14:10:56.667Z,4.59
2023-01-19T14:13:29.790Z,4.44
2023-01-19T14:16:01.524Z,4.43
2023-01-19T14:18:34.850Z,4.53
2023-01-19T14:21:09.062Z,4.57
2023-01-19T14:23:50.576Z,4.53
2023-01-19T14:26:39.891Z,4.63
2023-01-19T14:29:10.495Z,4.76
2023-01-19T14:32:01.546Z,4.80
2023-01-19T14:34:39.173Z,4.72
2023-01-19T14:37:37.257Z,4.57
2023-01-19T14:40:11.588Z,4.66
2023-01-19T14:42:45.901Z,4.58
2023-01-19T14:45:23.107Z,4.69
2023-01-19T14:48:05.835Z,4.77
2023-01-19T14:50:41.474Z,4.83
2023-01-19T14:53:24.934Z,4.87
2023-01-19T14:56:04.659Z,4.90
2023-01-19T14:58:35.958Z,4.92
2023-01-19T15:01:04.651Z,4.97
2023-01-19T15:03:47.731Z,4.99
2023-01-19T15:06:20.388Z,5.01
2023-01-19T15:08:50.107Z,4.98
2023-01-19T15:11:38.370Z,4.89
2023-01-19T15:14:06.579Z,4.91
2023-01-19T15:16:36.093Z,4.91
2023-01-19T15:19:04.053Z,4.95
2023-01-19T15:21:31.786Z,5.02
2023-01-19T15:24:00.490Z,5.08
2023-01-19T15:26:28.306Z,5.12
2023-01-19T15:28:56.679Z,5.16
2023-01-19T15:31:26.332Z,5.16
2023-01-19T15:33:54.479Z,5.18
2023-01-19T15:36:24.301Z,5.20
2023-01-19T15:38:52.094Z,5.18
2023-01-19T15:41:28.076Z,5.14
2023-01-19T15:43:56.285Z,5.13
2023-01-19T15:46:25.834Z,5.10
2023-01-19T15:48:54.126Z,5.09
2023-01-19T15:51:25.943Z,5.09
2023-01-19T15:53:54.850Z,5.08
2023-01-19T15:56:29.069Z,5.11
2023-01-19T15:58:58.342Z,5.10
2023-01-19T16:01:32.417Z,5.07
2023-01-19T16:04:03.142Z,5.08
2023-01-19T16:06:32.302Z,5.05
2023-01-19T16:09:01.569Z,5.03
2023-01-19T16:11:33.147Z,5.01
2023-01-19T16:14:01.600Z,4.96
2023-01-19T16:16:29.558Z,4.91
2023-01-19T16:18:57.554Z,4.85
2023-01-19T16:21:25.880Z,4.82
2023-01-19T16:23:54.285Z,4.80
2023-01-19T16:26:32.592Z,4.72
2023-01-19T16:29:08.810Z,4.71
2023-01-19T16:31:38.765Z,4.69
2023-01-19T16:34:07.253Z,4.64
2023-01-19T16:36:37.619Z,4.62
2023-01-19T16:39:13.974Z,4.50
2023-01-19T16:41:43.263Z,4.39
2023-01-19T16:44:13.275Z,4.25
2023-01-19T16:46:44.719Z,4.22
2023-01-19T16:49:18.550Z,4.18
2023-01-19T16:51:46.871Z,4.13
2023-01-19T16:54:18.552Z,4.07
2023-01-19T16:56:46.650Z,4.07
2023-01-19T16:59:17.233Z,4.05
2023-01-19T17:01:45.686Z,4.03
2023-01-19T17:04:13.886Z,3.98
2023-01-19T17:06:41.608Z,3.93
2023-01-19T17:09:09.470Z,3.92
2023-01-19T17:11:39.325Z,3.89
2023-01-19T17:14:13.528Z,3.88
2023-01-19T17:16:42.508Z,3.88
2023-01-19T17:19:15.570Z,3.87
2023-01-19T17:21:48.850Z,3.89
2023-01-19T17:24:17.506Z,3.85
2023-01-19T17:26:48.485Z,3.83
2023-01-19T17:29:16.671Z,3.76
2023-01-19T17:31:45.833Z,3.74
2023-01-19T17:34:13.670Z,3.73
2023-01-19T17:36:41.387Z,3.77
2023-01-19T17:39:14.750Z,3.75
2023-01-19T17:41:42.711Z,3.74
2023-01-19T17:44:11.166Z,3.73
2023-01-19T17:46:39.240Z,3.72
2023-01-19T17:49:08.426Z,3.73
2023-01-19T17:51:37.961Z,3.73
2023-01-19T17:54:05.771Z,3.73
2023-01-19T17:56:37.701Z,3.72
2023-01-19T17:59:07.750Z,3.71
2023-01-19T18:01:40.935Z,3.69
2023-01-19T18:04:09.413Z,3.68
2023-01-19T18:06:38.304Z,3.68
2023-01-19T18:09:07.351Z,3.65
2023-01-19T18:11:35.539Z,3.63
2023-01-19T18:14:03.640Z,3.60
2023-01-19T18:16:32.480Z,3.59
2023-01-19T18:19:00.150Z,3.58
2023-01-19T18:21:28.857Z,3.59
2023-01-19T18:24:03.992Z,3.62
2023-01-19T18:26:34.489Z,3.65
2023-01-19T18:29:02.441Z,3.58
2023-01-19T18:31:31.401Z,3.58
2023-01-19T18:33:59.211Z,3.59
2023-01-19T18:36:27.288Z,3.67
2023-01-19T18:38:55.008Z,3.73
2023-01-19T18:41:22.974Z,3.80
2023-01-19T18:43:52.139Z,3.86
2023-01-19T18:46:21.230Z,3.92
2023-01-19T18:48:49.015Z,3.97
2023-01-19T18:51:17.935Z,4.00
2023-01-19T18:53:45.900Z,4.02
2023-01-19T18:56:16.148Z,4.03
2023-01-19T18:58:44.245Z,4.01
2023-01-19T19:01:29.746Z,3.97
2023-01-19T19:03:59.714Z,4.01
2023-01-19T19:06:28.047Z,4.01
2023-01-19T19:08:59.187Z,3.99
2023-01-19T19:11:27.437Z,3.99
2023-01-19T19:14:00.727Z,4.02
2023-01-19T19:16:30.217Z,4.08
2023-01-19T19:18:59.487Z,4.11
2023-01-19T19:21:27.581Z,4.10
2023-01-19T19:23:57.688Z,4.11
2023-01-19T19:26:28.078Z,4.16
2023-01-19T19:28:56.263Z,4.18
2023-01-19T19:31:26.156Z,4.17
2023-01-19T19:33:56.151Z,4.18
2023-01-19T19:36:26.145Z,4.19
2023-01-19T19:38:54.468Z,4.21
2023-01-19T19:41:26.965Z,4.24
2023-01-19T19:43:55.671Z,4.21
2023-01-19T19:46:24.616Z,4.19
2023-01-19T19:48:53.758Z,4.23
2023-01-19T19:51:28.438Z,4.27
2023-01-19T19:54:00.497Z,4.30
2023-01-19T19:56:31.697Z,4.34
2023-01-19T19:58:59.906Z,4.40
2023-01-19T20:01:32.968Z,4.42
2023-01-19T20:04:10.714Z,4.44
2023-01-19T20:06:44.790Z,4.47
2023-01-19T20:09:14.141Z,4.49
2023-01-19T20:11:44.191Z,4.47
2023-01-19T20:14:14.540Z,4.48
2023-01-19T20:16:42.621Z,4.48
2023-01-19T20:19:10.944Z,4.44
2023-01-19T20:21:41.877Z,4.43
2023-01-19T20:24:15.990Z,4.40
2023-01-19T20:26:51.516Z,4.41
2023-01-19T20:29:20.198Z,4.42
2023-01-19T20:31:55.043Z,4.44
2023-01-19T20:34:28.130Z,4.47
2023-01-19T20:36:55.968Z,4.48
2023-01-19T20:39:24.772Z,4.46
2023-01-19T20:41:52.736Z,4.39
2023-01-19T20:44:23.832Z,4.37
2023-01-19T20:46:52.983Z,4.36
2023-01-19T20:49:21.181Z,4.27
2023-01-19T20:51:51.178Z,4.24
2023-01-19T20:54:22.782Z,4.25
2023-01-19T20:56:50.820Z,4.23
2023-01-19T20:59:19.034Z,4.22
2023-01-19T21:01:46.853Z,4.21
2023-01-19T21:04:15.784Z,4.21
2023-01-19T21:06:44.229Z,4.20
2023-01-19T21:09:11.951Z,4.19
2023-01-19T21:11:40.409Z,4.20
2023-01-19T21:14:08.244Z,4.24
2023-01-19T21:16:37.539Z,4.27
2023-01-19T21:19:05.840Z,4.32
2023-01-19T21:21:33.591Z,4.35
2023-01-19T21:24:03.446Z,4.36
2023-01-19T21:26:33.221Z,4.37
2023-01-19T21:29:03.478Z,4.40
2023-01-19T21:31:31.645Z,4.42
2023-01-19T21:33:59.742Z,4.43
2023-01-19T21:36:27.701Z,4.44
2023-01-19T21:39:00.740Z,4.46
2023-01-19T21:41:30.377Z,4.43
2023-01-19T21:44:00.019Z,4.42
2023-01-19T21:46:33.149Z,4.42
2023-01-19T21:49:04.309Z,4.42
2023-01-19T21:51:35.637Z,4.39
2023-01-19T21:54:05.646Z,4.41
2023-01-19T21:56:34.714Z,4.43
2023-01-19T21:59:03.416Z,4.47
2023-01-19T22:01:33.096Z,4.49
2023-01-19T22:04:01.286Z,4.46
2023-01-19T22:06:29.306Z,4.44
2023-01-19T22:08:58.377Z,4.45
2023-01-19T22:11:26.658Z,4.41
2023-01-19T22:13:54.744Z,4.41
2023-01-19T22:16:23.945Z,4.41
2023-01-19T22:18:59.594Z,4.32
2023-01-19T22:21:31.345Z,4.27
2023-01-19T22:24:01.229Z,4.26
2023-01-19T22:26:30.744Z,4.26
2023-01-19T22:29:01.481Z,4.28
2023-01-19T22:31:30.669Z,4.28
2023-01-19T22:33:58.725Z,4.29
2023-01-19T22:36:35.806Z,4.23
2023-01-19T22:39:11.688Z,4.17
2023-01-19T22:41:47.098Z,4.19
2023-01-19T22:44:21.161Z,4.20
2023-01-19T22:46:50.365Z,4.12
2023-01-19T22:49:18.788Z,4.18
2023-01-19T22:51:47.096Z,4.12
2023-01-19T22:54:15.291Z,4.13
2023-01-19T22:56:43.617Z,4.14
2023-01-19T22:59:11.576Z,4.12
2023-01-19T23:01:43.095Z,4.13
2023-01-19T23:04:14.722Z,4.10
2023-01-19T23:06:43.383Z,4.08
2023-01-19T23:09:14.117Z,4.04
2023-01-19T23:11:45.694Z,4.00
2023-01-19T23:14:17.950Z,3.98
2023-01-19T23:16:47.203Z,3.99
2023-01-19T23:19:17.188Z,4.02
2023-01-19T23:21:45.797Z,4.01
2023-01-19T23:24:13.525Z,4.00
2023-01-19T23:26:41.373Z,4.00
2023-01-19T23:29:14.364Z,3.99
2023-01-19T23:31:49.050Z,3.99
2023-01-19T23:34:17.514Z,4.00
2023-01-19T23:36:45.810Z,4.03
2023-01-19T23:39:20.747Z,4.05
2023-01-19T23:41:49.192Z,4.02
2023-01-19T23:44:18.133Z,3.99
2023-01-19T23:46:46.425Z,4.00
2023-01-19T23:49:14.394Z,4.04
2023-01-19T23:51:42.355Z,4.01
2023-01-19T23:54:12.488Z,4.02
2023-01-19T23:56:40.462Z,4.00
2023-01-19T23:59:14.994Z,3.98
